Terminal Aerodrome Forecast
Issued by NWS Pittsburgh, PA

Current Version | Previous Version | Graphics & Text | Print | Product List | Glossary On
Versions: 1 2 3 4 5 6 7 8 9 10 11 12 13 14 15 16 17 18 19 20 21 22 23 24 25 26 27 28
000
FTUS41 KPBZ 241700
TAFPIT
TAF
KPIT 241736Z 2418/2524 21020G45KT P6SM BKN050
     FM242100 23018G30KT P6SM SCT025 BKN040
      TEMPO 2421/2501 BKN025
     FM250500 24010G20KT P6SM BKN035
     FM251500 25010KT P6SM SCT035=

USA.gov is the U.S. government's official web portal to all federal, state and local government web resources and services.